Airfield :
LOGIN :

Register | Disclaimer

   EN    FR    IT 

 










Legend :    VFR   Marginal VFR   IFR   Intensive IFR   Very Intensive IFR
Visi :
Ceiling :
>= 8 km
>= 3000ft
5 to 8 km
1000 to 3000 ft
1500m to 5 km
500 to 1000 ft
800 to 1500m
200 to 500 ft
< 800m
< 200 ft
Symbols :   Thunderstorms  Fog  Heavy snow  Heavy precipitations  Wind > 20 kt
SIGMETs :     Misc.  Thunderstorms  Icing  Turbulence  Mountain Waves  Volcanic Ashes






- Airport Elevation : 1300 ft
- IATA code : LIG


LFBL - Limoges

CURRENT METAR :
  • 280030Z AUTO 02008KT CAVOK 13/10 Q1022 NOSIG

EXPIRED METARs :
  • 280000Z AUTO 02009KT CAVOK 13/10 Q1023 NOSIG
  • 272330Z AUTO 02008KT CAVOK 13/10 Q1023 NOSIG
  • 272300Z AUTO 02009KT CAVOK 14/11 Q1023 NOSIG
  • 272230Z AUTO 03007KT CAVOK 13/11 Q1024 NOSIG
  • 272200Z AUTO 02006KT CAVOK 14/10 Q1024 NOSIG

TAF TAF LFBL
Valid from the 28 at 00:00 until the 29 at 00:00 UTC


272300Z 2800/2824 02008KT CAVOK
ATIS : +33 5 55 48 40 37



MET'MAP, your aeronautical weather chart ! - Copyright ORBIFLY December 2007 - Disclaimer

ORBIFLY MET'MAP TEAM :

Programming & Development : Alexandra Zaïnal
Original concept : Baudouin d'Aumeries
Technical & hardware support : Manuel Goepfert
Assistance : Marc-Olivier Méhu

Contact : metmap@orbifly.com




SOURCES & CREDITS :

   NOAA